sensor_id;sensor_type;location;lat;lon;timestamp;P1;durP1;ratioP1;P2;durP2;ratioP2
4738;SDS011;2383;48.632;10.156;2023-10-08T00:01:32;14.38;;;6.60;;
4738;SDS011;2383;48.632;10.156;2023-10-08T00:05:35;12.32;;;5.45;;
4738;SDS011;2383;48.632;10.156;2023-10-08T00:09:38;10.75;;;6.53;;
4738;SDS011;2383;48.632;10.156;2023-10-08T00:13:40;12.43;;;6.43;;
4738;SDS011;2383;48.632;10.156;2023-10-08T00:17:43;10.63;;;6.10;;
4738;SDS011;2383;48.632;10.156;2023-10-08T00:21:47;11.35;;;5.82;;
4738;SDS011;2383;48.632;10.156;2023-10-08T00:25:50;10.50;;;6.40;;
4738;SDS011;2383;48.632;10.156;2023-10-08T00:29:52;14.27;;;6.50;;
4738;SDS011;2383;48.632;10.156;2023-10-08T00:33:54;11.20;;;6.45;;
4738;SDS011;2383;48.632;10.156;2023-10-08T00:37:57;10.60;;;5.88;;
4738;SDS011;2383;48.632;10.156;2023-10-08T00:42:02;11.77;;;6.05;;
4738;SDS011;2383;48.632;10.156;2023-10-08T00:46:06;12.85;;;6.85;;
4738;SDS011;2383;48.632;10.156;2023-10-08T00:50:27;9.20;;;6.07;;
4738;SDS011;2383;48.632;10.156;2023-10-08T00:54:44;11.80;;;6.65;;
4738;SDS011;2383;48.632;10.156;2023-10-08T00:59:04;12.55;;;6.25;;
4738;SDS011;2383;48.632;10.156;2023-10-08T01:03:07;12.48;;;6.13;;
4738;SDS011;2383;48.632;10.156;2023-10-08T01:07:17;10.80;;;6.40;;
4738;SDS011;2383;48.632;10.156;2023-10-08T01:11:23;14.95;;;6.10;;
4738;SDS011;2383;48.632;10.156;2023-10-08T01:15:48;11.88;;;6.55;;
4738;SDS011;2383;48.632;10.156;2023-10-08T01:19:53;10.43;;;5.90;;
4738;SDS011;2383;48.632;10.156;2023-10-08T01:24:06;8.13;;;5.40;;
4738;SDS011;2383;48.632;10.156;2023-10-08T01:28:09;12.98;;;6.22;;
4738;SDS011;2383;48.632;10.156;2023-10-08T01:32:16;13.75;;;6.07;;
4738;SDS011;2383;48.632;10.156;2023-10-08T01:36:21;10.60;;;6.35;;
4738;SDS011;2383;48.632;10.156;2023-10-08T01:40:25;11.88;;;5.85;;
4738;SDS011;2383;48.632;10.156;2023-10-08T01:44:28;11.10;;;5.82;;
4738;SDS011;2383;48.632;10.156;2023-10-08T01:48:31;9.70;;;5.70;;
4738;SDS011;2383;48.632;10.156;2023-10-08T01:52:39;9.38;;;5.85;;
4738;SDS011;2383;48.632;10.156;2023-10-08T01:56:42;12.30;;;5.97;;
4738;SDS011;2383;48.632;10.156;2023-10-08T02:00:45;8.35;;;5.07;;
4738;SDS011;2383;48.632;10.156;2023-10-08T02:04:49;11.75;;;6.22;;
4738;SDS011;2383;48.632;10.156;2023-10-08T02:08:51;11.02;;;5.85;;
4738;SDS011;2383;48.632;10.156;2023-10-08T02:12:53;13.02;;;5.88;;
4738;SDS011;2383;48.632;10.156;2023-10-08T02:16:57;10.35;;;5.40;;
4738;SDS011;2383;48.632;10.156;2023-10-08T02:21:02;11.13;;;6.03;;
4738;SDS011;2383;48.632;10.156;2023-10-08T02:25:07;9.65;;;5.47;;
4738;SDS011;2383;48.632;10.156;2023-10-08T02:29:13;9.05;;;6.05;;
4738;SDS011;2383;48.632;10.156;2023-10-08T02:33:16;8.98;;;5.30;;
4738;SDS011;2383;48.632;10.156;2023-10-08T02:37:19;13.43;;;6.28;;
4738;SDS011;2383;48.632;10.156;2023-10-08T02:41:21;11.57;;;6.03;;
4738;SDS011;2383;48.632;10.156;2023-10-08T02:45:26;8.25;;;5.50;;
4738;SDS011;2383;48.632;10.156;2023-10-08T02:49:29;10.93;;;6.13;;
4738;SDS011;2383;48.632;10.156;2023-10-08T02:53:33;12.00;;;5.70;;
4738;SDS011;2383;48.632;10.156;2023-10-08T02:57:35;8.88;;;5.03;;
4738;SDS011;2383;48.632;10.156;2023-10-08T03:01:37;10.65;;;5.10;;
4738;SDS011;2383;48.632;10.156;2023-10-08T03:05:51;11.32;;;5.50;;
4738;SDS011;2383;48.632;10.156;2023-10-08T03:09:54;8.20;;;5.28;;
4738;SDS011;2383;48.632;10.156;2023-10-08T03:14:05;13.73;;;6.10;;
4738;SDS011;2383;48.632;10.156;2023-10-08T03:18:16;8.90;;;5.55;;
4738;SDS011;2383;48.632;10.156;2023-10-08T03:22:18;8.70;;;5.70;;
4738;SDS011;2383;48.632;10.156;2023-10-08T03:26:20;10.88;;;5.13;;
4738;SDS011;2383;48.632;10.156;2023-10-08T03:30:35;11.32;;;5.22;;
4738;SDS011;2383;48.632;10.156;2023-10-08T03:34:49;9.95;;;5.75;;
4738;SDS011;2383;48.632;10.156;2023-10-08T03:38:51;13.07;;;5.80;;
4738;SDS011;2383;48.632;10.156;2023-10-08T03:42:55;8.93;;;5.82;;
4738;SDS011;2383;48.632;10.156;2023-10-08T03:46:57;10.63;;;5.55;;
4738;SDS011;2383;48.632;10.156;2023-10-08T03:50:59;12.15;;;5.45;;
4738;SDS011;2383;48.632;10.156;2023-10-08T03:55:07;12.18;;;4.38;;
4738;SDS011;2383;48.632;10.156;2023-10-08T03:59:23;6.25;;;3.78;;
4738;SDS011;2383;48.632;10.156;2023-10-08T04:03:36;7.45;;;4.22;;
4738;SDS011;2383;48.632;10.156;2023-10-08T04:07:53;12.05;;;4.35;;
4738;SDS011;2383;48.632;10.156;2023-10-08T04:12:01;9.02;;;4.60;;
4738;SDS011;2383;48.632;10.156;2023-10-08T04:16:06;8.65;;;5.03;;
4738;SDS011;2383;48.632;10.156;2023-10-08T04:20:08;9.18;;;4.63;;
4738;SDS011;2383;48.632;10.156;2023-10-08T04:24:31;9.77;;;4.15;;
4738;SDS011;2383;48.632;10.156;2023-10-08T04:28:36;10.05;;;4.90;;
4738;SDS011;2383;48.632;10.156;2023-10-08T04:32:39;9.38;;;4.82;;
4738;SDS011;2383;48.632;10.156;2023-10-08T04:36:42;11.90;;;4.90;;
4738;SDS011;2383;48.632;10.156;2023-10-08T04:40:50;8.73;;;5.18;;
4738;SDS011;2383;48.632;10.156;2023-10-08T04:44:53;11.20;;;4.28;;
4738;SDS011;2383;48.632;10.156;2023-10-08T04:48:56;10.30;;;4.85;;
4738;SDS011;2383;48.632;10.156;2023-10-08T04:52:59;8.25;;;4.22;;
4738;SDS011;2383;48.632;10.156;2023-10-08T04:57:02;10.05;;;4.45;;
4738;SDS011;2383;48.632;10.156;2023-10-08T05:01:08;10.10;;;4.63;;
4738;SDS011;2383;48.632;10.156;2023-10-08T05:05:20;9.23;;;4.32;;
4738;SDS011;2383;48.632;10.156;2023-10-08T05:09:22;7.53;;;4.40;;
4738;SDS011;2383;48.632;10.156;2023-10-08T05:13:24;7.20;;;4.35;;
4738;SDS011;2383;48.632;10.156;2023-10-08T05:17:34;8.65;;;4.07;;
4738;SDS011;2383;48.632;10.156;2023-10-08T05:21:47;9.85;;;4.28;;
4738;SDS011;2383;48.632;10.156;2023-10-08T05:26:03;10.98;;;4.82;;
4738;SDS011;2383;48.632;10.156;2023-10-08T05:30:08;8.32;;;5.00;;
4738;SDS011;2383;48.632;10.156;2023-10-08T05:34:17;8.85;;;4.10;;
4738;SDS011;2383;48.632;10.156;2023-10-08T05:38:34;9.23;;;5.25;;
4738;SDS011;2383;48.632;10.156;2023-10-08T05:42:36;12.27;;;4.80;;
4738;SDS011;2383;48.632;10.156;2023-10-08T05:46:47;9.93;;;4.97;;
4738;SDS011;2383;48.632;10.156;2023-10-08T05:50:55;12.35;;;4.70;;
4738;SDS011;2383;48.632;10.156;2023-10-08T05:54:59;11.57;;;4.47;;
4738;SDS011;2383;48.632;10.156;2023-10-08T05:59:23;9.25;;;5.20;;
4738;SDS011;2383;48.632;10.156;2023-10-08T06:03:32;9.52;;;4.47;;
4738;SDS011;2383;48.632;10.156;2023-10-08T06:11:58;12.00;;;4.88;;
4738;SDS011;2383;48.632;10.156;2023-10-08T06:16:14;9.48;;;4.93;;
4738;SDS011;2383;48.632;10.156;2023-10-08T06:20:34;10.82;;;5.10;;
4738;SDS011;2383;48.632;10.156;2023-10-08T06:24:38;12.00;;;4.65;;
4738;SDS011;2383;48.632;10.156;2023-10-08T06:28:42;9.10;;;4.88;;
4738;SDS011;2383;48.632;10.156;2023-10-08T06:32:46;9.02;;;4.90;;
4738;SDS011;2383;48.632;10.156;2023-10-08T06:36:50;9.30;;;5.45;;
4738;SDS011;2383;48.632;10.156;2023-10-08T06:41:01;12.50;;;4.53;;
4738;SDS011;2383;48.632;10.156;2023-10-08T06:45:26;10.45;;;4.38;;
4738;SDS011;2383;48.632;10.156;2023-10-08T06:49:29;15.35;;;5.22;;
4738;SDS011;2383;48.632;10.156;2023-10-08T06:53:33;10.25;;;5.18;;
4738;SDS011;2383;48.632;10.156;2023-10-08T06:57:35;14.02;;;5.38;;
4738;SDS011;2383;48.632;10.156;2023-10-08T07:01:40;12.57;;;4.55;;
4738;SDS011;2383;48.632;10.156;2023-10-08T07:05:46;10.45;;;4.60;;
4738;SDS011;2383;48.632;10.156;2023-10-08T07:10:04;8.45;;;5.03;;
4738;SDS011;2383;48.632;10.156;2023-10-08T07:14:07;12.73;;;5.13;;
4738;SDS011;2383;48.632;10.156;2023-10-08T07:18:12;10.82;;;4.72;;
4738;SDS011;2383;48.632;10.156;2023-10-08T07:22:16;11.00;;;4.63;;
4738;SDS011;2383;48.632;10.156;2023-10-08T07:26:25;10.95;;;4.78;;
4738;SDS011;2383;48.632;10.156;2023-10-08T07:30:27;14.57;;;5.15;;
4738;SDS011;2383;48.632;10.156;2023-10-08T07:34:34;12.65;;;5.47;;
4738;SDS011;2383;48.632;10.156;2023-10-08T07:38:35;11.95;;;5.15;;
4738;SDS011;2383;48.632;10.156;2023-10-08T07:42:38;10.38;;;4.60;;
4738;SDS011;2383;48.632;10.156;2023-10-08T07:46:41;10.93;;;4.70;;
4738;SDS011;2383;48.632;10.156;2023-10-08T07:50:44;11.07;;;5.00;;
4738;SDS011;2383;48.632;10.156;2023-10-08T07:54:47;17.55;;;5.63;;
4738;SDS011;2383;48.632;10.156;2023-10-08T07:58:50;15.05;;;5.57;;
4738;SDS011;2383;48.632;10.156;2023-10-08T08:02:52;11.20;;;3.95;;
4738;SDS011;2383;48.632;10.156;2023-10-08T08:06:56;9.77;;;4.30;;
4738;SDS011;2383;48.632;10.156;2023-10-08T08:11:03;11.38;;;4.18;;
4738;SDS011;2383;48.632;10.156;2023-10-08T08:15:08;10.48;;;3.80;;
4738;SDS011;2383;48.632;10.156;2023-10-08T08:19:17;10.77;;;3.85;;
4738;SDS011;2383;48.632;10.156;2023-10-08T08:23:25;10.95;;;4.15;;
4738;SDS011;2383;48.632;10.156;2023-10-08T08:27:27;11.27;;;3.90;;
4738;SDS011;2383;48.632;10.156;2023-10-08T08:31:36;10.30;;;3.50;;
4738;SDS011;2383;48.632;10.156;2023-10-08T08:35:38;12.82;;;3.67;;
4738;SDS011;2383;48.632;10.156;2023-10-08T08:39:40;11.27;;;3.58;;
4738;SDS011;2383;48.632;10.156;2023-10-08T08:43:43;15.07;;;4.03;;
4738;SDS011;2383;48.632;10.156;2023-10-08T08:47:45;12.68;;;4.30;;
4738;SDS011;2383;48.632;10.156;2023-10-08T08:51:48;15.00;;;4.18;;
4738;SDS011;2383;48.632;10.156;2023-10-08T08:55:55;13.38;;;3.80;;
4738;SDS011;2383;48.632;10.156;2023-10-08T08:59:57;12.55;;;3.88;;
4738;SDS011;2383;48.632;10.156;2023-10-08T09:04:00;9.43;;;4.18;;
4738;SDS011;2383;48.632;10.156;2023-10-08T09:08:04;13.68;;;4.32;;
4738;SDS011;2383;48.632;10.156;2023-10-08T09:12:11;11.80;;;3.80;;
4738;SDS011;2383;48.632;10.156;2023-10-08T09:16:14;12.95;;;4.00;;
4738;SDS011;2383;48.632;10.156;2023-10-08T09:20:17;13.85;;;4.38;;
4738;SDS011;2383;48.632;10.156;2023-10-08T09:24:21;15.88;;;4.70;;
4738;SDS011;2383;48.632;10.156;2023-10-08T09:28:23;11.55;;;3.80;;
4738;SDS011;2383;48.632;10.156;2023-10-08T09:32:26;11.32;;;3.63;;
4738;SDS011;2383;48.632;10.156;2023-10-08T09:36:32;9.57;;;4.00;;
4738;SDS011;2383;48.632;10.156;2023-10-08T09:40:38;10.88;;;3.42;;
4738;SDS011;2383;48.632;10.156;2023-10-08T09:44:42;8.15;;;3.70;;
4738;SDS011;2383;48.632;10.156;2023-10-08T09:48:47;13.68;;;4.00;;
4738;SDS011;2383;48.632;10.156;2023-10-08T09:57:18;12.90;;;3.92;;
4738;SDS011;2383;48.632;10.156;2023-10-08T10:01:20;9.57;;;3.70;;
4738;SDS011;2383;48.632;10.156;2023-10-08T10:05:24;12.00;;;3.65;;
4738;SDS011;2383;48.632;10.156;2023-10-08T10:09:37;16.33;;;4.00;;
4738;SDS011;2383;48.632;10.156;2023-10-08T10:13:40;9.90;;;3.90;;
4738;SDS011;2383;48.632;10.156;2023-10-08T10:17:46;11.13;;;3.78;;
4738;SDS011;2383;48.632;10.156;2023-10-08T10:21:50;12.02;;;4.40;;
4738;SDS011;2383;48.632;10.156;2023-10-08T10:25:53;10.00;;;3.95;;
4738;SDS011;2383;48.632;10.156;2023-10-08T10:30:01;7.45;;;3.40;;
4738;SDS011;2383;48.632;10.156;2023-10-08T10:34:13;11.80;;;4.18;;
4738;SDS011;2383;48.632;10.156;2023-10-08T10:38:20;7.30;;;3.70;;
4738;SDS011;2383;48.632;10.156;2023-10-08T10:42:28;11.75;;;3.80;;
4738;SDS011;2383;48.632;10.156;2023-10-08T10:46:29;14.20;;;4.57;;
4738;SDS011;2383;48.632;10.156;2023-10-08T10:50:32;14.07;;;3.53;;
4738;SDS011;2383;48.632;10.156;2023-10-08T10:54:35;9.93;;;3.85;;
4738;SDS011;2383;48.632;10.156;2023-10-08T10:58:37;8.23;;;3.65;;
4738;SDS011;2383;48.632;10.156;2023-10-08T11:02:43;9.02;;;4.25;;
4738;SDS011;2383;48.632;10.156;2023-10-08T11:06:50;9.77;;;4.28;;
4738;SDS011;2383;48.632;10.156;2023-10-08T11:10:55;10.52;;;4.07;;
4738;SDS011;2383;48.632;10.156;2023-10-08T11:15:00;8.95;;;3.35;;
4738;SDS011;2383;48.632;10.156;2023-10-08T11:19:08;8.82;;;3.75;;
4738;SDS011;2383;48.632;10.156;2023-10-08T11:23:31;11.23;;;3.85;;
4738;SDS011;2383;48.632;10.156;2023-10-08T11:27:37;15.50;;;4.13;;
4738;SDS011;2383;48.632;10.156;2023-10-08T11:31:40;9.00;;;3.80;;
4738;SDS011;2383;48.632;10.156;2023-10-08T11:36:00;9.43;;;3.90;;
4738;SDS011;2383;48.632;10.156;2023-10-08T11:40:02;8.82;;;3.70;;
4738;SDS011;2383;48.632;10.156;2023-10-08T11:44:19;12.55;;;3.83;;
4738;SDS011;2383;48.632;10.156;2023-10-08T11:48:21;10.88;;;3.50;;
4738;SDS011;2383;48.632;10.156;2023-10-08T11:52:30;12.38;;;4.18;;
4738;SDS011;2383;48.632;10.156;2023-10-08T11:56:32;12.10;;;4.18;;
4738;SDS011;2383;48.632;10.156;2023-10-08T12:00:39;10.80;;;3.63;;
4738;SDS011;2383;48.632;10.156;2023-10-08T12:04:47;11.18;;;4.07;;
4738;SDS011;2383;48.632;10.156;2023-10-08T12:08:50;14.85;;;3.78;;
4738;SDS011;2383;48.632;10.156;2023-10-08T12:12:55;8.23;;;4.10;;
4738;SDS011;2383;48.632;10.156;2023-10-08T12:16:57;11.68;;;4.05;;
4738;SDS011;2383;48.632;10.156;2023-10-08T12:21:01;10.68;;;3.92;;
4738;SDS011;2383;48.632;10.156;2023-10-08T12:25:04;11.73;;;3.60;;
4738;SDS011;2383;48.632;10.156;2023-10-08T12:29:08;10.77;;;3.70;;
4738;SDS011;2383;48.632;10.156;2023-10-08T12:33:11;13.07;;;4.15;;
4738;SDS011;2383;48.632;10.156;2023-10-08T12:37:17;12.75;;;3.53;;
4738;SDS011;2383;48.632;10.156;2023-10-08T12:41:20;11.07;;;3.80;;
4738;SDS011;2383;48.632;10.156;2023-10-08T12:45:21;13.52;;;4.10;;
4738;SDS011;2383;48.632;10.156;2023-10-08T12:49:23;13.00;;;3.65;;
4738;SDS011;2383;48.632;10.156;2023-10-08T12:53:27;15.82;;;4.07;;
4738;SDS011;2383;48.632;10.156;2023-10-08T12:57:36;11.82;;;4.10;;
4738;SDS011;2383;48.632;10.156;2023-10-08T13:01:39;12.98;;;3.97;;
4738;SDS011;2383;48.632;10.156;2023-10-08T13:05:43;12.70;;;4.05;;
4738;SDS011;2383;48.632;10.156;2023-10-08T13:09:48;12.25;;;4.20;;
4738;SDS011;2383;48.632;10.156;2023-10-08T13:13:53;16.80;;;4.40;;
4738;SDS011;2383;48.632;10.156;2023-10-08T13:17:59;17.60;;;4.35;;
4738;SDS011;2383;48.632;10.156;2023-10-08T13:22:04;8.90;;;3.63;;
4738;SDS011;2383;48.632;10.156;2023-10-08T13:26:09;10.68;;;3.42;;
4738;SDS011;2383;48.632;10.156;2023-10-08T13:30:18;13.63;;;4.28;;
4738;SDS011;2383;48.632;10.156;2023-10-08T13:34:22;12.98;;;4.30;;
4738;SDS011;2383;48.632;10.156;2023-10-08T13:38:24;14.25;;;5.00;;
4738;SDS011;2383;48.632;10.156;2023-10-08T13:42:26;14.98;;;4.10;;
4738;SDS011;2383;48.632;10.156;2023-10-08T13:46:28;15.77;;;4.05;;
4738;SDS011;2383;48.632;10.156;2023-10-08T13:50:32;18.48;;;5.47;;
4738;SDS011;2383;48.632;10.156;2023-10-08T13:54:34;18.13;;;4.07;;
4738;SDS011;2383;48.632;10.156;2023-10-08T13:58:41;11.57;;;4.05;;
4738;SDS011;2383;48.632;10.156;2023-10-08T14:02:47;14.63;;;5.40;;
4738;SDS011;2383;48.632;10.156;2023-10-08T14:06:52;12.90;;;4.22;;
4738;SDS011;2383;48.632;10.156;2023-10-08T14:10:57;13.27;;;3.97;;
4738;SDS011;2383;48.632;10.156;2023-10-08T14:15:04;16.05;;;4.40;;
4738;SDS011;2383;48.632;10.156;2023-10-08T14:19:11;13.63;;;4.55;;
4738;SDS011;2383;48.632;10.156;2023-10-08T14:23:16;17.52;;;6.38;;
4738;SDS011;2383;48.632;10.156;2023-10-08T14:27:18;16.75;;;4.20;;
4738;SDS011;2383;48.632;10.156;2023-10-08T14:31:26;13.93;;;4.38;;
4738;SDS011;2383;48.632;10.156;2023-10-08T14:35:29;18.88;;;4.90;;
4738;SDS011;2383;48.632;10.156;2023-10-08T14:39:50;18.40;;;5.97;;
4738;SDS011;2383;48.632;10.156;2023-10-08T14:44:10;17.48;;;4.47;;
4738;SDS011;2383;48.632;10.156;2023-10-08T14:48:15;15.90;;;4.30;;
4738;SDS011;2383;48.632;10.156;2023-10-08T14:52:18;18.65;;;4.30;;
4738;SDS011;2383;48.632;10.156;2023-10-08T14:56:20;11.50;;;4.32;;
4738;SDS011;2383;48.632;10.156;2023-10-08T15:00:22;13.85;;;3.88;;
4738;SDS011;2383;48.632;10.156;2023-10-08T15:04:28;15.57;;;4.38;;
4738;SDS011;2383;48.632;10.156;2023-10-08T15:08:30;16.30;;;3.63;;
4738;SDS011;2383;48.632;10.156;2023-10-08T15:12:34;18.55;;;4.88;;
4738;SDS011;2383;48.632;10.156;2023-10-08T15:16:37;14.98;;;5.05;;
4738;SDS011;2383;48.632;10.156;2023-10-08T15:20:40;20.67;;;5.32;;
4738;SDS011;2383;48.632;10.156;2023-10-08T15:24:43;16.80;;;4.32;;
4738;SDS011;2383;48.632;10.156;2023-10-08T15:28:46;11.45;;;3.90;;
4738;SDS011;2383;48.632;10.156;2023-10-08T15:32:48;10.25;;;3.78;;
4738;SDS011;2383;48.632;10.156;2023-10-08T15:36:52;12.15;;;3.88;;
4738;SDS011;2383;48.632;10.156;2023-10-08T15:40:54;12.13;;;3.95;;
4738;SDS011;2383;48.632;10.156;2023-10-08T15:44:59;10.85;;;3.78;;
4738;SDS011;2383;48.632;10.156;2023-10-08T15:49:01;15.23;;;4.50;;
4738;SDS011;2383;48.632;10.156;2023-10-08T15:53:04;14.18;;;4.22;;
4738;SDS011;2383;48.632;10.156;2023-10-08T15:57:05;10.60;;;4.10;;
4738;SDS011;2383;48.632;10.156;2023-10-08T16:01:07;8.45;;;4.28;;
4738;SDS011;2383;48.632;10.156;2023-10-08T16:05:09;15.40;;;4.22;;
4738;SDS011;2383;48.632;10.156;2023-10-08T16:09:11;11.82;;;3.90;;
4738;SDS011;2383;48.632;10.156;2023-10-08T16:13:14;14.18;;;4.15;;
4738;SDS011;2383;48.632;10.156;2023-10-08T16:17:16;9.25;;;3.83;;
4738;SDS011;2383;48.632;10.156;2023-10-08T16:21:20;15.02;;;4.20;;
4738;SDS011;2383;48.632;10.156;2023-10-08T16:25:22;10.18;;;4.15;;
4738;SDS011;2383;48.632;10.156;2023-10-08T16:29:25;13.90;;;6.18;;
4738;SDS011;2383;48.632;10.156;2023-10-08T16:33:27;12.00;;;5.00;;
4738;SDS011;2383;48.632;10.156;2023-10-08T16:37:32;12.60;;;5.65;;
4738;SDS011;2383;48.632;10.156;2023-10-08T16:41:34;13.82;;;6.55;;
4738;SDS011;2383;48.632;10.156;2023-10-08T16:45:36;15.88;;;5.70;;
4738;SDS011;2383;48.632;10.156;2023-10-08T16:49:38;9.82;;;4.82;;
4738;SDS011;2383;48.632;10.156;2023-10-08T16:53:40;12.90;;;4.43;;
4738;SDS011;2383;48.632;10.156;2023-10-08T16:57:43;12.77;;;6.70;;
4738;SDS011;2383;48.632;10.156;2023-10-08T17:01:45;15.77;;;5.25;;
4738;SDS011;2383;48.632;10.156;2023-10-08T17:05:48;10.25;;;4.55;;
4738;SDS011;2383;48.632;10.156;2023-10-08T17:09:50;21.83;;;9.00;;
4738;SDS011;2383;48.632;10.156;2023-10-08T17:13:53;14.00;;;6.60;;
4738;SDS011;2383;48.632;10.156;2023-10-08T17:17:56;15.02;;;6.82;;
4738;SDS011;2383;48.632;10.156;2023-10-08T17:21:58;15.15;;;6.57;;
4738;SDS011;2383;48.632;10.156;2023-10-08T17:26:00;12.55;;;6.15;;
4738;SDS011;2383;48.632;10.156;2023-10-08T17:30:02;11.55;;;4.97;;
4738;SDS011;2383;48.632;10.156;2023-10-08T17:34:08;11.80;;;5.78;;
4738;SDS011;2383;48.632;10.156;2023-10-08T17:38:15;14.90;;;4.85;;
4738;SDS011;2383;48.632;10.156;2023-10-08T17:42:17;9.23;;;4.70;;
4738;SDS011;2383;48.632;10.156;2023-10-08T17:46:20;20.25;;;4.93;;
4738;SDS011;2383;48.632;10.156;2023-10-08T17:50:26;9.45;;;4.65;;
4738;SDS011;2383;48.632;10.156;2023-10-08T17:54:30;15.95;;;7.22;;
4738;SDS011;2383;48.632;10.156;2023-10-08T17:58:34;17.70;;;7.85;;
4738;SDS011;2383;48.632;10.156;2023-10-08T18:02:38;20.95;;;9.60;;
4738;SDS011;2383;48.632;10.156;2023-10-08T18:06:44;18.45;;;9.57;;
4738;SDS011;2383;48.632;10.156;2023-10-08T18:10:46;15.50;;;8.82;;
4738;SDS011;2383;48.632;10.156;2023-10-08T18:14:48;17.25;;;8.68;;
4738;SDS011;2383;48.632;10.156;2023-10-08T18:18:52;18.85;;;8.88;;
4738;SDS011;2383;48.632;10.156;2023-10-08T18:22:55;21.70;;;8.45;;
4738;SDS011;2383;48.632;10.156;2023-10-08T18:26:58;13.52;;;7.85;;
4738;SDS011;2383;48.632;10.156;2023-10-08T18:31:00;14.73;;;4.57;;
4738;SDS011;2383;48.632;10.156;2023-10-08T18:35:03;10.05;;;4.05;;
4738;SDS011;2383;48.632;10.156;2023-10-08T18:39:07;10.48;;;4.35;;
4738;SDS011;2383;48.632;10.156;2023-10-08T18:43:16;9.30;;;5.30;;
4738;SDS011;2383;48.632;10.156;2023-10-08T18:47:20;15.80;;;7.43;;
4738;SDS011;2383;48.632;10.156;2023-10-08T18:51:24;15.95;;;6.60;;
4738;SDS011;2383;48.632;10.156;2023-10-08T18:55:26;10.75;;;5.10;;
4738;SDS011;2383;48.632;10.156;2023-10-08T18:59:43;13.35;;;5.43;;
4738;SDS011;2383;48.632;10.156;2023-10-08T19:03:46;12.40;;;5.60;;
4738;SDS011;2383;48.632;10.156;2023-10-08T19:07:48;16.60;;;5.97;;
4738;SDS011;2383;48.632;10.156;2023-10-08T19:11:53;27.98;;;13.52;;
4738;SDS011;2383;48.632;10.156;2023-10-08T19:15:56;16.45;;;7.05;;
4738;SDS011;2383;48.632;10.156;2023-10-08T19:19:59;12.13;;;5.00;;
4738;SDS011;2383;48.632;10.156;2023-10-08T19:24:01;14.02;;;5.70;;
4738;SDS011;2383;48.632;10.156;2023-10-08T19:28:05;29.60;;;17.58;;
4738;SDS011;2383;48.632;10.156;2023-10-08T19:32:09;21.80;;;13.57;;
4738;SDS011;2383;48.632;10.156;2023-10-08T19:36:13;15.50;;;7.60;;
4738;SDS011;2383;48.632;10.156;2023-10-08T19:40:16;16.05;;;5.88;;
4738;SDS011;2383;48.632;10.156;2023-10-08T19:44:18;18.23;;;6.97;;
4738;SDS011;2383;48.632;10.156;2023-10-08T19:48:20;23.98;;;14.30;;
4738;SDS011;2383;48.632;10.156;2023-10-08T19:52:22;22.65;;;12.07;;
4738;SDS011;2383;48.632;10.156;2023-10-08T19:56:24;20.15;;;10.93;;
4738;SDS011;2383;48.632;10.156;2023-10-08T20:00:28;20.02;;;10.57;;
4738;SDS011;2383;48.632;10.156;2023-10-08T20:04:31;16.00;;;8.55;;
4738;SDS011;2383;48.632;10.156;2023-10-08T20:08:34;14.55;;;7.60;;
4738;SDS011;2383;48.632;10.156;2023-10-08T20:12:36;14.32;;;6.95;;
4738;SDS011;2383;48.632;10.156;2023-10-08T20:16:40;9.88;;;6.07;;
4738;SDS011;2383;48.632;10.156;2023-10-08T20:20:43;15.68;;;7.30;;
4738;SDS011;2383;48.632;10.156;2023-10-08T20:24:45;20.75;;;10.45;;
4738;SDS011;2383;48.632;10.156;2023-10-08T20:28:51;20.65;;;7.53;;
4738;SDS011;2383;48.632;10.156;2023-10-08T20:32:53;12.55;;;7.22;;
4738;SDS011;2383;48.632;10.156;2023-10-08T20:36:56;13.88;;;6.57;;
4738;SDS011;2383;48.632;10.156;2023-10-08T20:40:59;18.95;;;6.68;;
4738;SDS011;2383;48.632;10.156;2023-10-08T20:45:02;11.68;;;5.85;;
4738;SDS011;2383;48.632;10.156;2023-10-08T20:49:09;12.48;;;5.57;;
4738;SDS011;2383;48.632;10.156;2023-10-08T20:53:11;10.27;;;5.38;;
4738;SDS011;2383;48.632;10.156;2023-10-08T20:57:15;14.50;;;6.78;;
4738;SDS011;2383;48.632;10.156;2023-10-08T21:01:17;14.73;;;6.45;;
4738;SDS011;2383;48.632;10.156;2023-10-08T21:05:19;9.93;;;5.20;;
4738;SDS011;2383;48.632;10.156;2023-10-08T21:09:22;15.75;;;5.57;;
4738;SDS011;2383;48.632;10.156;2023-10-08T21:13:26;13.07;;;6.13;;
4738;SDS011;2383;48.632;10.156;2023-10-08T21:17:28;13.15;;;6.38;;
4738;SDS011;2383;48.632;10.156;2023-10-08T21:21:30;11.93;;;5.90;;
4738;SDS011;2383;48.632;10.156;2023-10-08T21:25:32;11.88;;;6.43;;
4738;SDS011;2383;48.632;10.156;2023-10-08T21:29:35;15.32;;;5.63;;
4738;SDS011;2383;48.632;10.156;2023-10-08T21:33:36;11.20;;;4.90;;
4738;SDS011;2383;48.632;10.156;2023-10-08T21:37:40;10.55;;;4.68;;
4738;SDS011;2383;48.632;10.156;2023-10-08T21:41:42;8.52;;;4.75;;
4738;SDS011;2383;48.632;10.156;2023-10-08T21:45:44;9.57;;;4.55;;
4738;SDS011;2383;48.632;10.156;2023-10-08T21:49:46;12.38;;;5.03;;
4738;SDS011;2383;48.632;10.156;2023-10-08T21:53:48;10.68;;;5.18;;
4738;SDS011;2383;48.632;10.156;2023-10-08T21:57:50;9.38;;;4.28;;
4738;SDS011;2383;48.632;10.156;2023-10-08T22:01:52;9.60;;;4.60;;
4738;SDS011;2383;48.632;10.156;2023-10-08T22:05:54;10.38;;;4.97;;
4738;SDS011;2383;48.632;10.156;2023-10-08T22:09:57;10.00;;;5.10;;
4738;SDS011;2383;48.632;10.156;2023-10-08T22:13:59;12.90;;;5.03;;
4738;SDS011;2383;48.632;10.156;2023-10-08T22:18:01;11.50;;;5.20;;
4738;SDS011;2383;48.632;10.156;2023-10-08T22:22:04;13.18;;;5.60;;
4738;SDS011;2383;48.632;10.156;2023-10-08T22:26:08;15.40;;;5.40;;
4738;SDS011;2383;48.632;10.156;2023-10-08T22:30:12;8.27;;;4.93;;
4738;SDS011;2383;48.632;10.156;2023-10-08T22:34:24;9.13;;;5.13;;
4738;SDS011;2383;48.632;10.156;2023-10-08T22:38:30;11.50;;;4.85;;
4738;SDS011;2383;48.632;10.156;2023-10-08T22:42:33;9.77;;;4.82;;
4738;SDS011;2383;48.632;10.156;2023-10-08T22:46:35;6.97;;;4.78;;
4738;SDS011;2383;48.632;10.156;2023-10-08T22:50:43;9.10;;;5.32;;
4738;SDS011;2383;48.632;10.156;2023-10-08T22:54:57;11.70;;;5.25;;
4738;SDS011;2383;48.632;10.156;2023-10-08T22:58:59;9.30;;;5.28;;
4738;SDS011;2383;48.632;10.156;2023-10-08T23:03:03;8.88;;;5.28;;
4738;SDS011;2383;48.632;10.156;2023-10-08T23:07:08;10.93;;;5.70;;
4738;SDS011;2383;48.632;10.156;2023-10-08T23:11:11;12.85;;;5.40;;
4738;SDS011;2383;48.632;10.156;2023-10-08T23:15:14;11.88;;;5.75;;
4738;SDS011;2383;48.632;10.156;2023-10-08T23:19:16;12.15;;;5.45;;
4738;SDS011;2383;48.632;10.156;2023-10-08T23:23:19;12.05;;;5.03;;
4738;SDS011;2383;48.632;10.156;2023-10-08T23:27:21;9.75;;;4.85;;
4738;SDS011;2383;48.632;10.156;2023-10-08T23:31:24;9.55;;;4.97;;
4738;SDS011;2383;48.632;10.156;2023-10-08T23:35:26;10.48;;;5.05;;
4738;SDS011;2383;48.632;10.156;2023-10-08T23:39:30;9.07;;;4.85;;
4738;SDS011;2383;48.632;10.156;2023-10-08T23:43:37;12.57;;;5.10;;
4738;SDS011;2383;48.632;10.156;2023-10-08T23:47:42;11.80;;;5.30;;
4738;SDS011;2383;48.632;10.156;2023-10-08T23:51:48;9.88;;;5.30;;
4738;SDS011;2383;48.632;10.156;2023-10-08T23:55:54;10.30;;;5.03;;
